sensor_id;sensor_type;location;lat;lon;timestamp;temperature;humidity
41694;DHT22;27377;50.666;9.150;2023-07-13T00:00:18;17.10;99.90
41694;DHT22;27377;50.666;9.150;2023-07-13T00:02:43;17.10;99.90
41694;DHT22;27377;50.666;9.150;2023-07-13T00:05:09;17.10;99.90
41694;DHT22;27377;50.666;9.150;2023-07-13T00:07:35;17.10;99.90
41694;DHT22;27377;50.666;9.150;2023-07-13T00:10:05;17.10;99.90
41694;DHT22;27377;50.666;9.150;2023-07-13T00:12:33;17.10;99.90
41694;DHT22;27377;50.666;9.150;2023-07-13T00:15:02;17.10;99.90
41694;DHT22;27377;50.666;9.150;2023-07-13T00:17:29;17.10;99.90
41694;DHT22;27377;50.666;9.150;2023-07-13T00:19:56;17.10;99.90
41694;DHT22;27377;50.666;9.150;2023-07-13T00:22:22;17.00;99.90
41694;DHT22;27377;50.666;9.150;2023-07-13T00:24:51;17.00;99.90
41694;DHT22;27377;50.666;9.150;2023-07-13T00:27:19;17.00;99.90
41694;DHT22;27377;50.666;9.150;2023-07-13T00:29:45;17.00;99.90
41694;DHT22;27377;50.666;9.150;2023-07-13T00:32:14;17.00;99.90
41694;DHT22;27377;50.666;9.150;2023-07-13T00:34:40;17.10;99.90
41694;DHT22;27377;50.666;9.150;2023-07-13T00:37:07;17.10;99.90
41694;DHT22;27377;50.666;9.150;2023-07-13T00:39:33;17.10;99.90
41694;DHT22;27377;50.666;9.150;2023-07-13T00:42:00;17.00;99.90
41694;DHT22;27377;50.666;9.150;2023-07-13T00:44:26;17.00;99.90
41694;DHT22;27377;50.666;9.150;2023-07-13T00:46:52;16.90;99.90
41694;DHT22;27377;50.666;9.150;2023-07-13T00:49:23;16.90;99.90
41694;DHT22;27377;50.666;9.150;2023-07-13T00:52:07;16.90;99.90
41694;DHT22;27377;50.666;9.150;2023-07-13T00:54:53;16.90;99.90
41694;DHT22;27377;50.666;9.150;2023-07-13T00:57:20;16.90;99.90
41694;DHT22;27377;50.666;9.150;2023-07-13T00:59:50;16.90;99.90
41694;DHT22;27377;50.666;9.150;2023-07-13T01:02:17;16.90;99.90
41694;DHT22;27377;50.666;9.150;2023-07-13T01:04:43;16.90;99.90
41694;DHT22;27377;50.666;9.150;2023-07-13T01:07:09;17.00;99.90
41694;DHT22;27377;50.666;9.150;2023-07-13T01:09:36;17.00;99.90
41694;DHT22;27377;50.666;9.150;2023-07-13T01:12:02;17.00;99.90
41694;DHT22;27377;50.666;9.150;2023-07-13T01:14:28;16.90;99.90
41694;DHT22;27377;50.666;9.150;2023-07-13T01:16:54;17.00;99.90
41694;DHT22;27377;50.666;9.150;2023-07-13T01:19:40;17.00;99.90
41694;DHT22;27377;50.666;9.150;2023-07-13T01:22:21;17.00;99.90
41694;DHT22;27377;50.666;9.150;2023-07-13T01:24:51;17.00;99.90
41694;DHT22;27377;50.666;9.150;2023-07-13T01:27:21;17.00;99.90
41694;DHT22;27377;50.666;9.150;2023-07-13T01:29:47;17.00;99.90
41694;DHT22;27377;50.666;9.150;2023-07-13T01:32:21;17.10;99.90
41694;DHT22;27377;50.666;9.150;2023-07-13T01:34:50;17.00;99.90
41694;DHT22;27377;50.666;9.150;2023-07-13T01:37:16;17.00;99.90
41694;DHT22;27377;50.666;9.150;2023-07-13T01:39:42;17.00;99.90
41694;DHT22;27377;50.666;9.150;2023-07-13T01:42:07;17.00;99.90
41694;DHT22;27377;50.666;9.150;2023-07-13T01:44:33;16.90;99.90
41694;DHT22;27377;50.666;9.150;2023-07-13T01:46:59;16.90;99.90
41694;DHT22;27377;50.666;9.150;2023-07-13T01:49:25;16.90;99.90
41694;DHT22;27377;50.666;9.150;2023-07-13T01:52:03;16.70;99.90
41694;DHT22;27377;50.666;9.150;2023-07-13T01:55:35;16.70;99.90
41694;DHT22;27377;50.666;9.150;2023-07-13T01:58:02;16.70;99.90
41694;DHT22;27377;50.666;9.150;2023-07-13T02:00:28;16.70;99.90
41694;DHT22;27377;50.666;9.150;2023-07-13T02:02:53;16.80;99.90
41694;DHT22;27377;50.666;9.150;2023-07-13T02:05:19;16.70;99.90
41694;DHT22;27377;50.666;9.150;2023-07-13T02:08:22;16.70;99.90
41694;DHT22;27377;50.666;9.150;2023-07-13T02:14:16;16.70;99.90
41694;DHT22;27377;50.666;9.150;2023-07-13T02:17:05;16.70;99.90
41694;DHT22;27377;50.666;9.150;2023-07-13T02:19:54;16.70;99.90
41694;DHT22;27377;50.666;9.150;2023-07-13T02:22:51;16.70;99.90
41694;DHT22;27377;50.666;9.150;2023-07-13T02:25:20;16.60;99.90
41694;DHT22;27377;50.666;9.150;2023-07-13T02:27:51;16.60;99.90
41694;DHT22;27377;50.666;9.150;2023-07-13T02:30:19;16.60;99.90
41694;DHT22;27377;50.666;9.150;2023-07-13T02:32:53;16.50;99.90
41694;DHT22;27377;50.666;9.150;2023-07-13T02:35:31;16.50;99.90
41694;DHT22;27377;50.666;9.150;2023-07-13T02:37:59;16.50;99.90
41694;DHT22;27377;50.666;9.150;2023-07-13T02:40:46;16.50;99.90
41694;DHT22;27377;50.666;9.150;2023-07-13T02:43:46;16.50;99.90
41694;DHT22;27377;50.666;9.150;2023-07-13T02:46:54;16.50;99.90
41694;DHT22;27377;50.666;9.150;2023-07-13T02:49:56;16.40;99.90
41694;DHT22;27377;50.666;9.150;2023-07-13T02:52:47;16.30;99.90
41694;DHT22;27377;50.666;9.150;2023-07-13T02:55:18;16.30;99.90
41694;DHT22;27377;50.666;9.150;2023-07-13T02:58:13;16.30;99.90
41694;DHT22;27377;50.666;9.150;2023-07-13T03:07:27;16.20;99.90
41694;DHT22;27377;50.666;9.150;2023-07-13T03:10:22;16.10;99.90
41694;DHT22;27377;50.666;9.150;2023-07-13T03:13:24;15.90;99.90
41694;DHT22;27377;50.666;9.150;2023-07-13T03:16:20;15.90;99.90
41694;DHT22;27377;50.666;9.150;2023-07-13T03:19:14;15.90;99.90
41694;DHT22;27377;50.666;9.150;2023-07-13T03:21:42;15.80;99.90
41694;DHT22;27377;50.666;9.150;2023-07-13T03:24:36;15.80;99.90
41694;DHT22;27377;50.666;9.150;2023-07-13T03:27:20;15.80;99.90
41694;DHT22;27377;50.666;9.150;2023-07-13T03:29:54;15.90;99.90
41694;DHT22;27377;50.666;9.150;2023-07-13T03:32:45;15.90;99.90
41694;DHT22;27377;50.666;9.150;2023-07-13T03:35:16;15.90;99.90
41694;DHT22;27377;50.666;9.150;2023-07-13T03:37:49;15.80;99.90
41694;DHT22;27377;50.666;9.150;2023-07-13T03:40:16;15.70;99.90
41694;DHT22;27377;50.666;9.150;2023-07-13T03:42:42;15.60;99.90
41694;DHT22;27377;50.666;9.150;2023-07-13T03:45:09;15.50;99.90
41694;DHT22;27377;50.666;9.150;2023-07-13T03:47:38;15.40;99.90
41694;DHT22;27377;50.666;9.150;2023-07-13T03:50:16;15.40;99.90
41694;DHT22;27377;50.666;9.150;2023-07-13T03:52:46;15.40;99.90
41694;DHT22;27377;50.666;9.150;2023-07-13T03:55:41;15.40;99.90
41694;DHT22;27377;50.666;9.150;2023-07-13T03:58:36;15.40;99.90
41694;DHT22;27377;50.666;9.150;2023-07-13T04:01:11;15.50;99.90
41694;DHT22;27377;50.666;9.150;2023-07-13T04:03:48;15.40;99.90
41694;DHT22;27377;50.666;9.150;2023-07-13T04:06:26;15.30;99.90
41694;DHT22;27377;50.666;9.150;2023-07-13T04:09:06;15.20;99.90
41694;DHT22;27377;50.666;9.150;2023-07-13T04:14:32;15.20;99.90
41694;DHT22;27377;50.666;9.150;2023-07-13T04:17:31;15.20;99.90
41694;DHT22;27377;50.666;9.150;2023-07-13T04:20:17;15.30;99.90
41694;DHT22;27377;50.666;9.150;2023-07-13T04:22:52;15.30;99.90
41694;DHT22;27377;50.666;9.150;2023-07-13T04:25:49;15.30;99.90
41694;DHT22;27377;50.666;9.150;2023-07-13T04:28:40;15.30;99.90
41694;DHT22;27377;50.666;9.150;2023-07-13T04:31:08;15.30;99.90
41694;DHT22;27377;50.666;9.150;2023-07-13T04:33:37;15.30;99.90
41694;DHT22;27377;50.666;9.150;2023-07-13T04:36:03;15.30;99.90
41694;DHT22;27377;50.666;9.150;2023-07-13T04:38:33;15.30;99.90
41694;DHT22;27377;50.666;9.150;2023-07-13T04:41:05;15.30;99.90
41694;DHT22;27377;50.666;9.150;2023-07-13T04:43:38;15.30;99.90
41694;DHT22;27377;50.666;9.150;2023-07-13T04:46:08;15.20;99.90
41694;DHT22;27377;50.666;9.150;2023-07-13T04:48:34;15.20;99.90
41694;DHT22;27377;50.666;9.150;2023-07-13T04:51:00;15.10;99.90
41694;DHT22;27377;50.666;9.150;2023-07-13T04:53:26;15.10;99.90
41694;DHT22;27377;50.666;9.150;2023-07-13T04:55:52;15.10;99.90
41694;DHT22;27377;50.666;9.150;2023-07-13T04:58:18;15.20;99.90
41694;DHT22;27377;50.666;9.150;2023-07-13T05:00:44;15.20;99.90
41694;DHT22;27377;50.666;9.150;2023-07-13T05:03:10;15.20;99.90
41694;DHT22;27377;50.666;9.150;2023-07-13T05:05:38;15.20;99.90
41694;DHT22;27377;50.666;9.150;2023-07-13T05:08:05;15.20;99.90
41694;DHT22;27377;50.666;9.150;2023-07-13T05:10:44;15.30;99.90
41694;DHT22;27377;50.666;9.150;2023-07-13T05:13:13;15.40;99.90
41694;DHT22;27377;50.666;9.150;2023-07-13T05:15:42;15.50;99.90
41694;DHT22;27377;50.666;9.150;2023-07-13T05:18:43;15.60;99.90
41694;DHT22;27377;50.666;9.150;2023-07-13T05:24:56;15.80;99.90
41694;DHT22;27377;50.666;9.150;2023-07-13T05:33:07;16.10;99.90
41694;DHT22;27377;50.666;9.150;2023-07-13T05:35:33;16.20;99.90
41694;DHT22;27377;50.666;9.150;2023-07-13T05:41:46;16.40;99.90
41694;DHT22;27377;50.666;9.150;2023-07-13T05:44:11;16.60;99.90
41694;DHT22;27377;50.666;9.150;2023-07-13T05:46:37;16.70;99.90
41694;DHT22;27377;50.666;9.150;2023-07-13T05:49:03;16.70;99.90
41694;DHT22;27377;50.666;9.150;2023-07-13T05:51:29;16.80;99.70
41694;DHT22;27377;50.666;9.150;2023-07-13T05:53:54;16.90;99.80
41694;DHT22;27377;50.666;9.150;2023-07-13T05:56:20;17.00;99.70
41694;DHT22;27377;50.666;9.150;2023-07-13T05:58:48;17.00;99.50
41694;DHT22;27377;50.666;9.150;2023-07-13T06:01:15;17.00;99.30
41694;DHT22;27377;50.666;9.150;2023-07-13T06:03:41;17.10;99.20
41694;DHT22;27377;50.666;9.150;2023-07-13T06:06:09;17.10;98.80
41694;DHT22;27377;50.666;9.150;2023-07-13T06:08:35;17.10;98.60
41694;DHT22;27377;50.666;9.150;2023-07-13T06:11:06;17.20;98.70
41694;DHT22;27377;50.666;9.150;2023-07-13T06:13:32;17.20;98.70
41694;DHT22;27377;50.666;9.150;2023-07-13T06:15:59;17.20;98.80
41694;DHT22;27377;50.666;9.150;2023-07-13T06:18:24;17.30;98.60
41694;DHT22;27377;50.666;9.150;2023-07-13T06:20:50;17.30;98.40
41694;DHT22;27377;50.666;9.150;2023-07-13T06:23:17;17.40;98.40
41694;DHT22;27377;50.666;9.150;2023-07-13T06:25:43;17.40;98.30
41694;DHT22;27377;50.666;9.150;2023-07-13T06:28:08;17.40;97.90
41694;DHT22;27377;50.666;9.150;2023-07-13T06:30:34;17.40;98.00
41694;DHT22;27377;50.666;9.150;2023-07-13T06:33:00;17.50;98.00
41694;DHT22;27377;50.666;9.150;2023-07-13T06:35:28;17.50;98.00
41694;DHT22;27377;50.666;9.150;2023-07-13T06:37:57;17.60;98.10
41694;DHT22;27377;50.666;9.150;2023-07-13T06:40:22;17.60;97.90
41694;DHT22;27377;50.666;9.150;2023-07-13T06:42:48;17.70;97.80
41694;DHT22;27377;50.666;9.150;2023-07-13T06:45:13;17.70;97.70
41694;DHT22;27377;50.666;9.150;2023-07-13T06:47:42;17.70;97.40
41694;DHT22;27377;50.666;9.150;2023-07-13T06:50:08;17.80;97.00
41694;DHT22;27377;50.666;9.150;2023-07-13T06:52:34;17.80;96.70
41694;DHT22;27377;50.666;9.150;2023-07-13T06:54:59;17.80;97.00
41694;DHT22;27377;50.666;9.150;2023-07-13T06:57:25;17.80;97.10
41694;DHT22;27377;50.666;9.150;2023-07-13T06:59:51;17.90;97.30
41694;DHT22;27377;50.666;9.150;2023-07-13T07:02:17;17.90;97.00
41694;DHT22;27377;50.666;9.150;2023-07-13T07:04:42;17.90;96.70
41694;DHT22;27377;50.666;9.150;2023-07-13T07:07:08;18.00;96.60
41694;DHT22;27377;50.666;9.150;2023-07-13T07:09:33;18.00;96.50
41694;DHT22;27377;50.666;9.150;2023-07-13T07:11:59;18.00;96.20
41694;DHT22;27377;50.666;9.150;2023-07-13T07:14:25;18.00;96.40
41694;DHT22;27377;50.666;9.150;2023-07-13T07:16:50;18.00;96.30
41694;DHT22;27377;50.666;9.150;2023-07-13T07:19:16;18.10;96.00
41694;DHT22;27377;50.666;9.150;2023-07-13T07:21:42;18.10;95.90
41694;DHT22;27377;50.666;9.150;2023-07-13T07:24:10;18.10;95.90
41694;DHT22;27377;50.666;9.150;2023-07-13T07:26:36;18.20;95.80
41694;DHT22;27377;50.666;9.150;2023-07-13T07:29:01;18.20;95.60
41694;DHT22;27377;50.666;9.150;2023-07-13T07:31:27;18.20;95.50
41694;DHT22;27377;50.666;9.150;2023-07-13T07:33:52;18.30;95.70
41694;DHT22;27377;50.666;9.150;2023-07-13T07:36:18;18.40;95.50
41694;DHT22;27377;50.666;9.150;2023-07-13T07:38:44;18.40;95.40
41694;DHT22;27377;50.666;9.150;2023-07-13T07:41:10;18.50;95.50
41694;DHT22;27377;50.666;9.150;2023-07-13T07:43:36;18.50;95.50
41694;DHT22;27377;50.666;9.150;2023-07-13T07:46:02;18.60;95.00
41694;DHT22;27377;50.666;9.150;2023-07-13T07:48:28;18.60;95.00
41694;DHT22;27377;50.666;9.150;2023-07-13T07:50:54;18.60;95.00
41694;DHT22;27377;50.666;9.150;2023-07-13T07:53:19;18.70;95.00
41694;DHT22;27377;50.666;9.150;2023-07-13T07:55:45;18.70;95.00
41694;DHT22;27377;50.666;9.150;2023-07-13T07:58:11;18.70;94.90
41694;DHT22;27377;50.666;9.150;2023-07-13T08:00:36;18.70;94.90
41694;DHT22;27377;50.666;9.150;2023-07-13T08:03:02;18.80;94.80
41694;DHT22;27377;50.666;9.150;2023-07-13T08:05:28;18.80;94.40
41694;DHT22;27377;50.666;9.150;2023-07-13T08:07:53;18.80;94.30
41694;DHT22;27377;50.666;9.150;2023-07-13T08:10:19;18.80;94.10
41694;DHT22;27377;50.666;9.150;2023-07-13T08:12:45;18.80;94.10
41694;DHT22;27377;50.666;9.150;2023-07-13T08:15:14;18.90;94.00
41694;DHT22;27377;50.666;9.150;2023-07-13T08:17:40;19.00;93.70
41694;DHT22;27377;50.666;9.150;2023-07-13T08:20:06;19.00;93.80
41694;DHT22;27377;50.666;9.150;2023-07-13T08:22:33;19.00;93.80
41694;DHT22;27377;50.666;9.150;2023-07-13T08:24:59;19.10;93.30
41694;DHT22;27377;50.666;9.150;2023-07-13T08:27:26;19.10;93.50
41694;DHT22;27377;50.666;9.150;2023-07-13T08:29:53;19.10;93.60
41694;DHT22;27377;50.666;9.150;2023-07-13T08:32:20;19.10;93.40
41694;DHT22;27377;50.666;9.150;2023-07-13T08:34:46;19.00;93.30
41694;DHT22;27377;50.666;9.150;2023-07-13T08:37:13;19.00;93.30
41694;DHT22;27377;50.666;9.150;2023-07-13T08:39:38;19.10;93.20
41694;DHT22;27377;50.666;9.150;2023-07-13T08:45:29;19.10;93.30
41694;DHT22;27377;50.666;9.150;2023-07-13T08:47:58;19.10;93.30
41694;DHT22;27377;50.666;9.150;2023-07-13T08:50:33;19.20;93.40
41694;DHT22;27377;50.666;9.150;2023-07-13T08:53:02;19.20;93.50
41694;DHT22;27377;50.666;9.150;2023-07-13T08:55:31;19.20;93.40
41694;DHT22;27377;50.666;9.150;2023-07-13T08:58:09;19.20;93.40
41694;DHT22;27377;50.666;9.150;2023-07-13T09:01:33;19.20;93.20
41694;DHT22;27377;50.666;9.150;2023-07-13T09:03:57;19.10;93.10
41694;DHT22;27377;50.666;9.150;2023-07-13T09:06:33;19.10;93.40
41694;DHT22;27377;50.666;9.150;2023-07-13T09:09:12;19.20;93.30
41694;DHT22;27377;50.666;9.150;2023-07-13T09:11:50;19.20;93.30
41694;DHT22;27377;50.666;9.150;2023-07-13T09:15:11;19.20;93.20
41694;DHT22;27377;50.666;9.150;2023-07-13T09:17:49;19.20;93.30
41694;DHT22;27377;50.666;9.150;2023-07-13T09:22:48;19.30;93.10
41694;DHT22;27377;50.666;9.150;2023-07-13T09:25:26;19.30;93.20
41694;DHT22;27377;50.666;9.150;2023-07-13T09:27:57;19.30;93.20
41694;DHT22;27377;50.666;9.150;2023-07-13T09:30:32;19.40;93.30
41694;DHT22;27377;50.666;9.150;2023-07-13T09:32:59;19.40;93.30
41694;DHT22;27377;50.666;9.150;2023-07-13T09:35:28;19.50;93.10
41694;DHT22;27377;50.666;9.150;2023-07-13T09:37:59;19.50;93.10
41694;DHT22;27377;50.666;9.150;2023-07-13T09:40:40;19.60;92.50
41694;DHT22;27377;50.666;9.150;2023-07-13T09:43:10;19.70;92.40
41694;DHT22;27377;50.666;9.150;2023-07-13T09:45:38;19.70;92.50
41694;DHT22;27377;50.666;9.150;2023-07-13T09:48:10;19.70;92.40
41694;DHT22;27377;50.666;9.150;2023-07-13T09:50:36;19.70;92.20
41694;DHT22;27377;50.666;9.150;2023-07-13T09:53:02;19.80;92.20
41694;DHT22;27377;50.666;9.150;2023-07-13T09:55:41;19.80;92.20
41694;DHT22;27377;50.666;9.150;2023-07-13T09:58:16;19.90;92.20
41694;DHT22;27377;50.666;9.150;2023-07-13T10:00:57;19.80;91.70
41694;DHT22;27377;50.666;9.150;2023-07-13T10:03:27;20.00;91.20
41694;DHT22;27377;50.666;9.150;2023-07-13T10:05:53;20.00;91.50
41694;DHT22;27377;50.666;9.150;2023-07-13T10:08:29;20.00;91.70
41694;DHT22;27377;50.666;9.150;2023-07-13T10:11:09;19.90;91.50
41694;DHT22;27377;50.666;9.150;2023-07-13T10:13:39;19.90;91.50
41694;DHT22;27377;50.666;9.150;2023-07-13T10:16:07;20.00;91.40
41694;DHT22;27377;50.666;9.150;2023-07-13T10:18:39;20.00;91.20
41694;DHT22;27377;50.666;9.150;2023-07-13T10:21:19;20.00;91.00
41694;DHT22;27377;50.666;9.150;2023-07-13T10:23:55;20.00;91.10
41694;DHT22;27377;50.666;9.150;2023-07-13T10:26:31;20.00;90.90
41694;DHT22;27377;50.666;9.150;2023-07-13T10:29:00;20.10;91.10
41694;DHT22;27377;50.666;9.150;2023-07-13T10:31:30;20.10;90.60
41694;DHT22;27377;50.666;9.150;2023-07-13T10:33:56;20.30;90.40
41694;DHT22;27377;50.666;9.150;2023-07-13T10:36:38;20.30;90.70
41694;DHT22;27377;50.666;9.150;2023-07-13T10:39:06;20.30;90.90
41694;DHT22;27377;50.666;9.150;2023-07-13T10:41:36;20.40;90.90
41694;DHT22;27377;50.666;9.150;2023-07-13T10:44:04;20.40;90.50
41694;DHT22;27377;50.666;9.150;2023-07-13T10:46:32;20.40;90.10
41694;DHT22;27377;50.666;9.150;2023-07-13T10:49:03;20.50;89.70
41694;DHT22;27377;50.666;9.150;2023-07-13T10:51:30;20.50;89.60
41694;DHT22;27377;50.666;9.150;2023-07-13T10:54:19;20.50;90.30
41694;DHT22;27377;50.666;9.150;2023-07-13T10:56:52;20.50;90.10
41694;DHT22;27377;50.666;9.150;2023-07-13T10:59:26;20.50;90.10
41694;DHT22;27377;50.666;9.150;2023-07-13T11:02:08;20.60;90.20
41694;DHT22;27377;50.666;9.150;2023-07-13T11:04:44;20.60;90.30
41694;DHT22;27377;50.666;9.150;2023-07-13T11:07:26;20.60;89.50
41694;DHT22;27377;50.666;9.150;2023-07-13T11:09:55;20.70;88.50
41694;DHT22;27377;50.666;9.150;2023-07-13T11:17:47;20.70;88.00
41694;DHT22;27377;50.666;9.150;2023-07-13T11:23:08;20.80;87.30
41694;DHT22;27377;50.666;9.150;2023-07-13T11:25:35;20.80;88.10
41694;DHT22;27377;50.666;9.150;2023-07-13T11:33:28;20.80;87.40
41694;DHT22;27377;50.666;9.150;2023-07-13T11:38:45;20.90;87.80
41694;DHT22;27377;50.666;9.150;2023-07-13T11:41:26;21.00;88.40
41694;DHT22;27377;50.666;9.150;2023-07-13T11:44:06;21.00;88.50
41694;DHT22;27377;50.666;9.150;2023-07-13T11:46:31;21.00;88.70
41694;DHT22;27377;50.666;9.150;2023-07-13T11:48:57;21.00;87.80
41694;DHT22;27377;50.666;9.150;2023-07-13T11:51:28;21.10;86.60
41694;DHT22;27377;50.666;9.150;2023-07-13T11:53:56;21.10;87.10
41694;DHT22;27377;50.666;9.150;2023-07-13T11:56:23;21.20;87.40
41694;DHT22;27377;50.666;9.150;2023-07-13T11:58:53;21.20;87.10
41694;DHT22;27377;50.666;9.150;2023-07-13T12:01:24;21.30;86.20
41694;DHT22;27377;50.666;9.150;2023-07-13T12:03:51;21.30;86.30
41694;DHT22;27377;50.666;9.150;2023-07-13T12:06:35;21.30;86.30
41694;DHT22;27377;50.666;9.150;2023-07-13T12:09:14;21.40;86.30
41694;DHT22;27377;50.666;9.150;2023-07-13T12:11:43;21.40;84.90
41694;DHT22;27377;50.666;9.150;2023-07-13T12:14:16;21.40;85.60
41694;DHT22;27377;50.666;9.150;2023-07-13T12:16:43;21.40;86.70
41694;DHT22;27377;50.666;9.150;2023-07-13T12:19:21;21.40;86.60
41694;DHT22;27377;50.666;9.150;2023-07-13T12:21:47;21.30;86.60
41694;DHT22;27377;50.666;9.150;2023-07-13T12:24:18;21.30;87.10
41694;DHT22;27377;50.666;9.150;2023-07-13T12:26:44;21.30;88.10
41694;DHT22;27377;50.666;9.150;2023-07-13T12:29:17;21.30;87.80
41694;DHT22;27377;50.666;9.150;2023-07-13T12:31:45;21.30;87.30
41694;DHT22;27377;50.666;9.150;2023-07-13T12:34:16;21.30;87.80
41694;DHT22;27377;50.666;9.150;2023-07-13T12:36:54;21.30;86.80
41694;DHT22;27377;50.666;9.150;2023-07-13T12:39:23;21.30;87.20
41694;DHT22;27377;50.666;9.150;2023-07-13T12:41:51;21.30;88.00
41694;DHT22;27377;50.666;9.150;2023-07-13T12:44:22;21.30;88.30
41694;DHT22;27377;50.666;9.150;2023-07-13T12:46:59;21.40;87.40
41694;DHT22;27377;50.666;9.150;2023-07-13T12:49:30;21.40;87.00
41694;DHT22;27377;50.666;9.150;2023-07-13T12:52:00;21.40;86.90
41694;DHT22;27377;50.666;9.150;2023-07-13T12:54:27;21.40;86.00
41694;DHT22;27377;50.666;9.150;2023-07-13T12:56:53;21.40;86.80
41694;DHT22;27377;50.666;9.150;2023-07-13T12:59:21;21.40;86.10
41694;DHT22;27377;50.666;9.150;2023-07-13T13:01:48;21.40;86.30
41694;DHT22;27377;50.666;9.150;2023-07-13T13:04:19;21.40;87.10
41694;DHT22;27377;50.666;9.150;2023-07-13T13:06:48;21.40;87.00
41694;DHT22;27377;50.666;9.150;2023-07-13T13:09:15;21.40;87.30
41694;DHT22;27377;50.666;9.150;2023-07-13T13:11:44;21.40;87.10
41694;DHT22;27377;50.666;9.150;2023-07-13T13:14:09;21.60;86.10
41694;DHT22;27377;50.666;9.150;2023-07-13T13:16:47;21.60;86.60
41694;DHT22;27377;50.666;9.150;2023-07-13T13:19:19;21.60;86.70
41694;DHT22;27377;50.666;9.150;2023-07-13T13:21:47;21.60;86.60
41694;DHT22;27377;50.666;9.150;2023-07-13T13:24:21;21.60;86.70
41694;DHT22;27377;50.666;9.150;2023-07-13T13:26:49;21.60;85.00
41694;DHT22;27377;50.666;9.150;2023-07-13T13:29:20;21.60;85.80
41694;DHT22;27377;50.666;9.150;2023-07-13T13:31:46;21.60;86.00
41694;DHT22;27377;50.666;9.150;2023-07-13T13:34:14;21.60;86.30
41694;DHT22;27377;50.666;9.150;2023-07-13T13:36:41;21.60;86.40
41694;DHT22;27377;50.666;9.150;2023-07-13T13:41:42;21.60;84.80
41694;DHT22;27377;50.666;9.150;2023-07-13T13:44:09;21.60;84.80
41694;DHT22;27377;50.666;9.150;2023-07-13T13:46:35;21.50;84.90
41694;DHT22;27377;50.666;9.150;2023-07-13T13:49:01;21.50;84.50
41694;DHT22;27377;50.666;9.150;2023-07-13T13:51:28;21.60;83.20
41694;DHT22;27377;50.666;9.150;2023-07-13T13:53:55;21.70;83.60
41694;DHT22;27377;50.666;9.150;2023-07-13T13:56:20;21.70;84.30
41694;DHT22;27377;50.666;9.150;2023-07-13T13:58:46;21.60;85.00
41694;DHT22;27377;50.666;9.150;2023-07-13T14:01:20;21.60;85.50
41694;DHT22;27377;50.666;9.150;2023-07-13T14:03:47;21.60;85.90
41694;DHT22;27377;50.666;9.150;2023-07-13T14:06:15;21.60;85.00
41694;DHT22;27377;50.666;9.150;2023-07-13T14:08:41;21.60;85.60
41694;DHT22;27377;50.666;9.150;2023-07-13T14:11:12;21.70;84.40
41694;DHT22;27377;50.666;9.150;2023-07-13T14:13:43;21.70;84.90
41694;DHT22;27377;50.666;9.150;2023-07-13T14:16:12;21.70;84.90
41694;DHT22;27377;50.666;9.150;2023-07-13T14:18:38;21.60;85.10
41694;DHT22;27377;50.666;9.150;2023-07-13T14:21:12;21.60;85.00
41694;DHT22;27377;50.666;9.150;2023-07-13T14:23:38;21.60;84.60
41694;DHT22;27377;50.666;9.150;2023-07-13T14:26:10;21.60;84.80
41694;DHT22;27377;50.666;9.150;2023-07-13T14:28:40;21.60;85.50
41694;DHT22;27377;50.666;9.150;2023-07-13T14:31:07;21.70;85.90
41694;DHT22;27377;50.666;9.150;2023-07-13T14:33:32;21.70;86.40
41694;DHT22;27377;50.666;9.150;2023-07-13T14:35:58;21.80;85.90
41694;DHT22;27377;50.666;9.150;2023-07-13T14:38:24;21.80;85.60
41694;DHT22;27377;50.666;9.150;2023-07-13T14:40:49;21.70;85.80
41694;DHT22;27377;50.666;9.150;2023-07-13T14:43:16;21.70;85.70
41694;DHT22;27377;50.666;9.150;2023-07-13T14:45:49;21.80;85.30
41694;DHT22;27377;50.666;9.150;2023-07-13T14:48:23;21.80;84.80
41694;DHT22;27377;50.666;9.150;2023-07-13T14:50:55;21.80;85.30
41694;DHT22;27377;50.666;9.150;2023-07-13T14:53:22;21.80;85.80
41694;DHT22;27377;50.666;9.150;2023-07-13T14:55:48;21.80;85.50
41694;DHT22;27377;50.666;9.150;2023-07-13T14:58:13;21.80;85.20
41694;DHT22;27377;50.666;9.150;2023-07-13T15:00:40;21.80;84.10
41694;DHT22;27377;50.666;9.150;2023-07-13T15:03:21;21.80;84.20
41694;DHT22;27377;50.666;9.150;2023-07-13T15:05:48;21.80;84.60
41694;DHT22;27377;50.666;9.150;2023-07-13T15:08:15;21.80;84.60
41694;DHT22;27377;50.666;9.150;2023-07-13T15:10:41;21.80;84.80
41694;DHT22;27377;50.666;9.150;2023-07-13T15:13:16;21.70;85.20
41694;DHT22;27377;50.666;9.150;2023-07-13T15:15:45;21.70;85.80
41694;DHT22;27377;50.666;9.150;2023-07-13T15:18:11;21.60;86.00
41694;DHT22;27377;50.666;9.150;2023-07-13T15:20:38;21.70;85.10
41694;DHT22;27377;50.666;9.150;2023-07-13T15:23:04;21.70;85.40
41694;DHT22;27377;50.666;9.150;2023-07-13T15:25:32;21.70;85.50
41694;DHT22;27377;50.666;9.150;2023-07-13T15:27:59;21.70;85.70
41694;DHT22;27377;50.666;9.150;2023-07-13T15:30:28;21.60;86.10
41694;DHT22;27377;50.666;9.150;2023-07-13T15:32:56;21.70;85.30
41694;DHT22;27377;50.666;9.150;2023-07-13T15:35:25;21.70;83.40
41694;DHT22;27377;50.666;9.150;2023-07-13T15:37:51;21.60;83.90
41694;DHT22;27377;50.666;9.150;2023-07-13T15:40:17;21.60;83.90
41694;DHT22;27377;50.666;9.150;2023-07-13T15:42:43;21.60;84.00
41694;DHT22;27377;50.666;9.150;2023-07-13T15:47:42;21.50;84.50
41694;DHT22;27377;50.666;9.150;2023-07-13T15:50:18;21.50;85.00
41694;DHT22;27377;50.666;9.150;2023-07-13T15:52:50;21.50;85.40
41694;DHT22;27377;50.666;9.150;2023-07-13T15:55:17;21.60;85.00
41694;DHT22;27377;50.666;9.150;2023-07-13T15:57:49;21.50;85.20
41694;DHT22;27377;50.666;9.150;2023-07-13T16:00:21;21.50;85.40
41694;DHT22;27377;50.666;9.150;2023-07-13T16:02:48;21.50;86.00
41694;DHT22;27377;50.666;9.150;2023-07-13T16:05:14;21.50;86.10
41694;DHT22;27377;50.666;9.150;2023-07-13T16:07:42;21.50;86.40
41694;DHT22;27377;50.666;9.150;2023-07-13T16:10:13;21.50;87.20
41694;DHT22;27377;50.666;9.150;2023-07-13T16:12:40;21.50;86.00
41694;DHT22;27377;50.666;9.150;2023-07-13T16:15:15;21.50;86.30
41694;DHT22;27377;50.666;9.150;2023-07-13T16:17:42;21.50;86.60
41694;DHT22;27377;50.666;9.150;2023-07-13T16:20:09;21.50;86.60
41694;DHT22;27377;50.666;9.150;2023-07-13T16:22:40;21.50;85.60
41694;DHT22;27377;50.666;9.150;2023-07-13T16:25:18;21.50;85.90
41694;DHT22;27377;50.666;9.150;2023-07-13T16:27:45;21.40;86.10
41694;DHT22;27377;50.666;9.150;2023-07-13T16:30:13;21.40;86.20
41694;DHT22;27377;50.666;9.150;2023-07-13T16:32:39;21.40;85.80
41694;DHT22;27377;50.666;9.150;2023-07-13T16:35:05;21.40;85.40
41694;DHT22;27377;50.666;9.150;2023-07-13T16:37:31;21.40;84.80
41694;DHT22;27377;50.666;9.150;2023-07-13T16:39:58;21.40;84.50
41694;DHT22;27377;50.666;9.150;2023-07-13T16:42:26;21.40;84.30
41694;DHT22;27377;50.666;9.150;2023-07-13T16:44:51;21.40;83.70
41694;DHT22;27377;50.666;9.150;2023-07-13T16:47:19;21.40;83.80